createdAt,value
2023-11-01T00:02:40.927Z,14.6
2023-11-01T00:08:32.975Z,14.4
2023-11-01T00:14:08.750Z,14.3
2023-11-01T00:19:46.072Z,14.1
2023-11-01T00:25:39.180Z,13.9
2023-11-01T00:31:15.553Z,13.8
2023-11-01T00:36:52.885Z,13.7
2023-11-01T00:42:28.835Z,13.5
2023-11-01T00:48:05.130Z,13.4
2023-11-01T00:53:42.243Z,13.3
2023-11-01T00:59:18.419Z,13.3
2023-11-01T01:04:41.066Z,13.1
2023-11-01T01:10:18.396Z,13
2023-11-01T01:16:10.016Z,12.9
2023-11-01T01:21:47.521Z,12.8
2023-11-01T01:27:40.088Z,12.8
2023-11-01T01:33:16.589Z,12.6
2023-11-01T01:39:08.214Z,12.6
2023-11-01T01:44:45.111Z,12.5
2023-11-01T01:50:28.576Z,12.4
2023-11-01T01:55:49.000Z,12.4
2023-11-01T02:01:11.175Z,12.3
2023-11-01T02:07:01.057Z,12.3
2023-11-01T02:12:37.571Z,12.2
2023-11-01T02:18:13.814Z,12.1
2023-11-01T02:23:49.974Z,12.1
2023-11-01T02:29:25.780Z,12.1
2023-11-01T02:35:02.634Z,12
2023-11-01T02:40:54.163Z,12
2023-11-01T02:46:30.687Z,11.9
2023-11-01T02:52:07.812Z,11.9
2023-11-01T02:57:28.134Z,11.9
2023-11-01T03:02:48.794Z,11.9
2023-11-01T03:08:25.857Z,11.8
2023-11-01T03:14:01.700Z,11.8
2023-11-01T03:19:38.079Z,11.8
2023-11-01T03:25:14.865Z,11.7
2023-11-01T03:30:50.648Z,11.6
2023-11-01T03:36:42.694Z,11.6
2023-11-01T03:42:19.738Z,11.6
2023-11-01T03:48:11.228Z,11.4
2023-11-01T03:53:47.982Z,11.4
2023-11-01T03:59:25.189Z,11.3
2023-11-01T04:05:02.783Z,11.2
2023-11-01T04:10:54.368Z,11.1
2023-11-01T04:16:30.585Z,11
2023-11-01T04:22:06.244Z,10.9
2023-11-01T04:27:42.274Z,10.8
2023-11-01T04:33:19.427Z,10.6
2023-11-01T04:38:55.437Z,10.5
2023-11-01T04:44:16.490Z,10.3
2023-11-01T04:49:55.453Z,10.2
2023-11-01T04:55:33.718Z,10
2023-11-01T05:01:10.090Z,9.9
2023-11-01T05:07:03.845Z,9.8
2023-11-01T05:12:39.689Z,9.6
2023-11-01T05:18:16.745Z,9.5
2023-11-01T05:23:53.051Z,9.4
2023-11-01T05:29:30.050Z,9.3
2023-11-01T05:35:08.913Z,9.2
2023-11-01T05:40:45.952Z,9.3
2023-11-01T05:45:51.533Z,9.6
2023-11-01T05:50:57.296Z,10.5
2023-11-01T05:56:48.948Z,12.1
2023-11-01T06:02:10.028Z,14.1
2023-11-01T06:07:47.016Z,16.3
2023-11-01T06:13:08.395Z,18.9
2023-11-01T06:18:45.550Z,21.5
2023-11-01T06:24:06.523Z,26.2
2023-11-01T06:29:43.571Z,30.3
2023-11-01T06:35:21.232Z,29.4
2023-11-01T06:40:58.245Z,29.5
2023-11-01T06:46:35.446Z,32.1
2023-11-01T06:52:12.684Z,33.3
2023-11-01T06:57:36.232Z,34.1
2023-11-01T07:02:58.285Z,34.9
2023-11-01T07:08:34.799Z,35.6
2023-11-01T07:13:55.355Z,36.5
2023-11-01T07:19:32.291Z,37.2
2023-11-01T07:25:08.692Z,37.9
2023-11-01T07:30:29.321Z,38.6
2023-11-01T07:36:06.300Z,39.6
2023-11-01T07:41:41.924Z,39.6
2023-11-01T07:47:18.021Z,41
2023-11-01T07:52:56.429Z,41.1
2023-11-01T07:58:16.981Z,40.3
2023-11-01T08:03:54.007Z,40
2023-11-01T08:09:18.713Z,39.8
2023-11-01T08:14:41.036Z,39.3
2023-11-01T08:19:46.437Z,39.6
2023-11-01T08:24:52.334Z,39.1
2023-11-01T08:30:28.623Z,38.8
2023-11-01T08:35:51.069Z,38.6
2023-11-01T08:41:12.309Z,38.2
2023-11-01T08:47:04.627Z,37.8
2023-11-01T08:52:10.402Z,39.1
2023-11-01T08:57:16.583Z,40.7
2023-11-01T09:03:11.655Z,41.8
2023-11-01T09:08:16.878Z,42
2023-11-01T09:13:44.765Z,40.6
2023-11-01T09:18:50.591Z,40.1
2023-11-01T09:24:29.213Z,39.8
2023-11-01T09:29:50.323Z,41.2
2023-11-01T09:34:56.165Z,42.8
2023-11-01T09:40:17.014Z,43.9
2023-11-01T09:45:54.372Z,44.1
2023-11-01T09:51:00.534Z,45.4
2023-11-01T09:56:36.970Z,46.1
2023-11-01T10:01:58.413Z,46.8
2023-11-01T10:07:19.663Z,47.6
2023-11-01T10:12:28.238Z,48.1
2023-11-01T10:17:34.449Z,49.1
2023-11-01T10:22:40.588Z,49.7
2023-11-01T10:28:02.695Z,50.1
2023-11-01T10:33:27.843Z,50.4
2023-11-01T10:38:48.723Z,50.8
2023-11-01T10:44:27.594Z,51.1
2023-11-01T10:50:08.709Z,51.5
2023-11-01T10:55:47.170Z,51.9
2023-11-01T11:01:23.680Z,52.2
2023-11-01T11:07:01.721Z,52.4
2023-11-01T11:12:45.067Z,52.8
2023-11-01T11:18:21.858Z,53
2023-11-01T11:23:33.065Z,53.3
2023-11-01T11:28:40.052Z,53.5
2023-11-01T11:34:04.633Z,53.4
2023-11-01T11:39:41.229Z,53.3
2023-11-01T11:44:46.118Z,53.5
2023-11-01T11:50:23.500Z,53.8
2023-11-01T11:55:45.388Z,54
2023-11-01T12:01:09.468Z,54.2
2023-11-01T12:06:15.516Z,54.3
2023-11-01T12:12:07.405Z,54.4
2023-11-01T12:17:43.724Z,54.3
2023-11-01T12:23:21.704Z,54.1
2023-11-01T12:28:27.906Z,54.1
2023-11-01T12:33:33.936Z,54.2
2023-11-01T12:38:40.185Z,54.2
2023-11-01T12:44:19.840Z,54.2
2023-11-01T12:49:26.310Z,54.1
2023-11-01T12:55:18.536Z,54
2023-11-01T13:00:58.600Z,53.9
2023-11-01T13:06:51.348Z,53.7
2023-11-01T13:12:12.623Z,53.6
2023-11-01T13:18:09.698Z,53.3
2023-11-01T13:23:49.158Z,53.1
2023-11-01T13:29:41.569Z,52.9
2023-11-01T13:35:35.669Z,52.6
2023-11-01T13:41:11.669Z,52.3
2023-11-01T13:52:13.203Z,51.5
2023-11-01T13:58:18.315Z,51
2023-11-01T14:04:12.494Z,50.3
2023-11-01T14:10:08.011Z,49.8
2023-11-01T14:15:45.185Z,49.2
2023-11-01T14:21:40.866Z,48.6
2023-11-01T14:27:17.603Z,47.9
2023-11-01T14:33:09.148Z,47.3
2023-11-01T14:38:46.174Z,44.8
2023-11-01T14:44:39.200Z,42.6
2023-11-01T14:50:15.540Z,39.7
2023-11-01T14:55:52.764Z,36.9
2023-11-01T15:01:45.167Z,34.6
2023-11-01T15:07:21.544Z,32.7
2023-11-01T15:12:59.634Z,30.8
2023-11-01T15:18:37.425Z,29.1
2023-11-01T15:24:28.713Z,27.6
2023-11-01T15:30:22.252Z,26.1
2023-11-01T15:36:17.961Z,24.6
2023-11-01T15:42:12.152Z,23.4
2023-11-01T15:48:08.548Z,22.3
2023-11-01T15:53:48.713Z,21.3
2023-11-01T15:59:27.912Z,20.4
2023-11-01T16:05:25.439Z,19.6
2023-11-01T16:10:47.184Z,18.8
2023-11-01T16:16:42.466Z,18.1
2023-11-01T16:22:37.027Z,17.4
2023-11-01T16:28:29.364Z,16.9
2023-11-01T16:34:08.916Z,16.3
2023-11-01T16:39:31.232Z,15.8
2023-11-01T16:45:23.778Z,15.3
2023-11-01T16:51:19.073Z,14.9
2023-11-01T16:57:11.086Z,14.5
2023-11-01T17:02:54.094Z,14.1
2023-11-01T17:08:31.252Z,13.8
2023-11-01T17:14:23.232Z,13.4
2023-11-01T17:20:15.653Z,13.1
2023-11-01T17:26:06.806Z,12.8
2023-11-01T17:31:46.059Z,12.4
2023-11-01T17:37:25.958Z,12.2
2023-11-01T17:43:27.311Z,11.9
2023-11-01T17:49:19.712Z,11.6
2023-11-01T17:55:11.647Z,11.4
2023-11-01T18:00:52.575Z,11.1
2023-11-01T18:06:27.386Z,10.9
2023-11-01T18:12:05.628Z,10.6
2023-11-01T18:17:45.936Z,10.4
2023-11-01T18:23:29.143Z,10.3
2023-11-01T18:29:09.762Z,10
2023-11-01T18:34:47.602Z,9.9
2023-11-01T18:40:25.866Z,9.6
2023-11-01T18:46:05.006Z,9.5
2023-11-01T18:51:42.572Z,9.3
2023-11-01T18:57:36.465Z,9.1
2023-11-01T19:03:14.707Z,8.9
2023-11-01T19:09:08.778Z,8.8
2023-11-01T19:14:46.409Z,8.6
2023-11-01T19:20:45.043Z,8.4
2023-11-01T19:26:38.533Z,8.3
2023-11-01T19:32:23.153Z,8.2
2023-11-01T19:38:26.030Z,8
2023-11-01T19:43:48.869Z,7.9
2023-11-01T19:49:11.992Z,7.8
2023-11-01T19:54:54.000Z,7.7
2023-11-01T20:00:32.620Z,7.6
2023-11-01T20:06:12.189Z,7.5
2023-11-01T20:11:50.783Z,7.4
2023-11-01T20:17:21.183Z,7.3
2023-11-01T20:23:00.218Z,7.3
2023-11-01T20:28:25.200Z,7.2
2023-11-01T20:34:04.385Z,7.1
2023-11-01T20:39:42.126Z,7.1
2023-11-01T20:45:19.976Z,7.1
2023-11-01T20:50:57.937Z,7
2023-11-01T20:56:20.415Z,7
2023-11-01T21:01:58.243Z,6.9
2023-11-01T21:07:21.468Z,6.9
2023-11-01T21:13:01.628Z,6.9
2023-11-01T21:18:39.454Z,6.8
2023-11-01T21:24:04.728Z,6.8
2023-11-01T21:29:42.086Z,6.8
2023-11-01T21:35:28.504Z,6.8
2023-11-01T21:41:07.355Z,6.7
2023-11-01T21:46:54.341Z,6.7
2023-11-01T21:52:16.413Z,6.7
2023-11-01T21:57:37.479Z,6.6
2023-11-01T22:03:08.425Z,6.7
2023-11-01T22:08:39.388Z,6.6
2023-11-01T22:14:15.134Z,6.6
2023-11-01T22:19:53.665Z,6.6
2023-11-01T22:25:30.440Z,6.6
2023-11-01T22:31:23.593Z,6.6
2023-11-01T22:37:01.161Z,6.6
2023-11-01T22:42:38.192Z,6.6
2023-11-01T22:48:31.008Z,6.6
2023-11-01T22:54:22.659Z,6.5
2023-11-01T23:00:12.786Z,6.5
2023-11-01T23:06:04.220Z,6.5
2023-11-01T23:11:40.801Z,6.5
2023-11-01T23:17:17.498Z,6.4
2023-11-01T23:22:55.019Z,6.5
2023-11-01T23:28:33.731Z,6.5
2023-11-01T23:34:20.442Z,6.5
2023-11-01T23:40:07.318Z,6.5
2023-11-01T23:45:43.437Z,6.5
2023-11-01T23:52:11.548Z,6.5
2023-11-01T23:58:03.808Z,6.5
